Time;durP1;ratioP1;P1;durP2;ratioP2;P2;SDS_P1;SDS_P2;PMS_P1;PMS_P2;Temp;Humidity;BMP_temperature;BMP_pressure;BME280_temperature;BME280_humidity;BME280_pressure;Samples;Min_cycle;Max_cycle;Signal;HPM_P1;HPM_P2
2022/06/12 00:01:54;;;;;;;2.42;2.22;;;;;;;18.02;67.50;99160.41;4093722;28;20231;-59
2022/06/12 00:03:56;;;;;;;2.78;2.58;;;;;;;18.00;67.38;99162.66;4093976;28;20328;-56
2022/06/12 00:05:59;;;;;;;2.83;2.55;;;;;;;17.99;67.40;99162.91;4092209;28;20207;-59
2022/06/12 00:08:03;;;;;;;7.05;2.63;;;;;;;18.01;67.23;99157.91;4096673;28;20295;-58
2022/06/12 00:10:04;;;;;;;3.85;2.58;;;;;;;17.95;67.23;99159.03;4099750;28;20326;-58
2022/06/12 00:12:06;;;;;;;2.65;1.83;;;;;;;17.96;67.47;99157.94;4098038;28;20218;-58
2022/06/12 00:14:08;;;;;;;2.75;2.47;;;;;;;18.00;67.52;99161.81;4089590;28;20211;-59
2022/06/12 00:16:11;;;;;;;2.75;2.30;;;;;;;18.00;67.52;99167.34;4095200;28;20207;-58
2022/06/12 00:18:13;;;;;;;2.78;2.55;;;;;;;17.98;67.45;99164.84;4094266;28;20302;-58
2022/06/12 00:20:16;;;;;;;2.45;2.10;;;;;;;17.98;67.43;99161.25;4090044;28;20747;-58
2022/06/12 00:22:19;;;;;;;2.20;2.05;;;;;;;17.94;67.62;99157.38;4089856;28;20231;-58
2022/06/12 00:24:20;;;;;;;4.57;2.55;;;;;;;17.87;67.70;99152.16;4087785;28;20239;-59
2022/06/12 00:26:31;;;;;;;3.17;2.33;;;;;;;17.83;67.97;99159.34;4087703;28;20574;-59
2022/06/12 00:28:33;;;;;;;3.45;2.80;;;;;;;17.82;67.82;99152.16;4094342;28;20207;-57
2022/06/12 00:30:35;;;;;;;4.90;2.55;;;;;;;17.81;67.82;99152.44;4092377;28;20242;-58
2022/06/12 00:32:37;;;;;;;4.97;2.65;;;;;;;17.83;67.89;99161.28;4090560;28;20241;-59
2022/06/12 00:34:45;;;;;;;3.55;2.63;;;;;;;17.82;67.60;99154.09;4087852;28;20262;-57
2022/06/12 00:36:47;;;;;;;3.53;2.13;;;;;;;17.85;67.81;99153.56;4092193;28;20285;-57
2022/06/12 00:38:48;;;;;;;2.97;2.70;;;;;;;17.82;67.70;99159.63;4096606;28;20747;-58
2022/06/12 00:40:50;;;;;;;7.82;2.83;;;;;;;17.83;67.74;99164.06;4089263;28;20203;-57
2022/06/12 00:42:55;;;;;;;3.88;3.47;;;;;;;17.80;67.79;99161.88;4091447;28;20238;-58
2022/06/12 00:45:00;;;;;;;4.90;2.88;;;;;;;17.75;67.76;99153.56;4092744;28;20203;-58
2022/06/12 00:47:05;;;;;;;3.58;3.25;;;;;;;17.72;68.16;99154.13;4079407;29;20204;-57
2022/06/12 00:49:15;;;;;;;3.53;3.13;;;;;;;17.68;67.99;99153.03;4093541;28;20496;-58
2022/06/12 00:51:19;;;;;;;3.63;3.28;;;;;;;17.66;68.00;99147.75;4103397;28;20617;-59
2022/06/12 00:53:27;;;;;;;6.50;3.15;;;;;;;17.62;68.49;99154.13;4096279;28;20227;-58
2022/06/12 00:55:47;;;;;;;4.28;3.15;;;;;;;17.56;68.62;99149.72;4090316;28;20753;-59
2022/06/12 00:57:48;;;;;;;3.78;3.33;;;;;;;17.48;68.56;99153.06;4094421;28;20207;-58
2022/06/12 00:59:59;;;;;;;2.95;2.65;;;;;;;17.48;68.63;99144.75;4093168;28;20224;-57
2022/06/12 01:02:01;;;;;;;2.53;2.33;;;;;;;17.48;68.71;99147.53;4089033;28;20234;-57
2022/06/12 01:06:33;;;;;;;3.15;2.85;;;;;;;17.46;68.94;99144.22;4098769;28;20229;-59
2022/06/12 01:08:36;;;;;;;5.43;2.72;;;;;;;17.41;68.63;99147.81;4093350;28;20302;-58
2022/06/12 01:10:40;;;;;;;4.75;3.05;;;;;;;17.42;68.81;99148.63;4091676;28;20845;-56
2022/06/12 01:12:48;;;;;;;3.97;2.78;;;;;;;17.39;68.90;99143.69;4090263;28;20260;-57
2022/06/12 01:14:55;;;;;;;2.97;2.40;;;;;;;17.37;69.20;99145.88;4081197;28;20235;-57
2022/06/12 01:16:59;;;;;;;4.22;2.70;;;;;;;17.27;69.41;99145.88;4090729;28;20206;-58
2022/06/12 01:19:03;;;;;;;5.43;2.50;;;;;;;17.20;69.16;99139.78;4074430;28;20224;-60
2022/06/12 01:21:44;;;;;;;4.65;2.58;;;;;;;17.20;69.16;99145.31;4075473;29;20214;-58
2022/06/12 01:24:13;;;;;;;2.50;2.10;;;;;;;17.23;69.34;99144.75;4092288;28;21626;-57
2022/06/12 01:26:43;;;;;;;2.90;2.60;;;;;;;17.20;69.52;99145.31;4098885;28;20210;-56
2022/06/12 01:29:04;;;;;;;3.10;2.80;;;;;;;17.16;69.31;99149.72;4082119;29;20203;-57
2022/06/12 01:31:25;;;;;;;2.75;2.45;;;;;;;17.14;69.26;99152.78;4100996;28;20207;-57
2022/06/12 01:33:49;;;;;;;3.25;2.95;;;;;;;17.14;69.25;99163.00;4100180;28;20695;-56
2022/06/12 01:36:09;;;;;;;4.93;3.55;;;;;;;17.14;69.18;99163.00;4099550;28;20237;-57
2022/06/12 01:38:17;;;;;;;3.55;3.25;;;;;;;17.13;69.12;99166.88;4096691;28;20711;-57
2022/06/12 01:40:35;;;;;;;2.97;2.55;;;;;;;17.08;69.32;99158.59;4097521;28;20209;-56
2022/06/12 01:42:59;;;;;;;2.75;2.55;;;;;;;17.07;69.47;99162.47;4095486;28;20314;-59
2022/06/12 01:45:13;;;;;;;5.28;2.78;;;;;;;17.08;69.42;99155.81;4093469;28;20206;-58
2022/06/12 01:47:36;;;;;;;3.40;3.05;;;;;;;17.08;69.64;99158.59;4091140;28;20214;-57
2022/06/12 01:49:50;;;;;;;4.40;3.80;;;;;;;17.04;69.48;99157.47;4095150;28;20246;-55
2022/06/12 01:51:58;;;;;;;3.70;3.42;;;;;;;16.99;69.55;99154.72;4088621;28;20412;-57
2022/06/12 01:54:16;;;;;;;2.85;2.65;;;;;;;16.95;69.68;99150.84;4077434;29;20252;-59
2022/06/12 01:56:23;;;;;;;3.50;3.20;;;;;;;16.93;69.99;99151.09;4095039;28;20257;-55
2022/06/12 01:58:37;;;;;;;3.88;3.17;;;;;;;16.92;70.06;99145.88;4071772;29;20217;-56
2022/06/12 02:00:41;;;;;;;4.18;3.35;;;;;;;16.91;70.03;99146.97;4089752;28;20667;-59
2022/06/12 02:02:47;;;;;;;7.40;4.10;;;;;;;16.87;70.17;99142.25;4073931;29;20259;-59
2022/06/12 02:04:56;;;;;;;3.35;3.15;;;;;;;16.85;70.23;99142.53;4074916;29;20213;-56
2022/06/12 02:07:16;;;;;;;3.20;2.90;;;;;;;16.83;70.09;99153.03;4094474;28;21411;-59
2022/06/12 02:09:20;;;;;;;3.58;3.00;;;;;;;16.81;70.00;99152.47;4096537;28;20215;-59
2022/06/12 02:14:07;;;;;;;4.20;3.80;;;;;;;16.87;69.85;99134.81;4097794;28;20214;-58
2022/06/12 02:16:32;;;;;;;3.45;3.15;;;;;;;16.85;69.54;99136.19;4077712;29;20289;-60
2022/06/12 02:18:50;;;;;;;3.33;3.03;;;;;;;16.84;69.89;99135.34;4092771;28;20679;-59
2022/06/12 02:21:08;;;;;;;3.05;2.85;;;;;;;16.77;70.01;99139.50;4091335;28;20208;-58
2022/06/12 02:23:20;;;;;;;3.80;2.83;;;;;;;16.70;69.84;99136.16;4095202;28;20229;-60
2022/06/12 02:25:25;;;;;;;3.38;2.95;;;;;;;16.68;70.27;99141.16;4075792;29;20200;-58
2022/06/12 02:27:39;;;;;;;3.20;2.90;;;;;;;16.63;70.37;99138.38;4075847;28;20235;-58
2022/06/12 02:29:55;;;;;;;2.90;2.70;;;;;;;16.63;70.22;99141.13;4089984;28;20203;-58
2022/06/12 02:31:58;;;;;;;3.42;2.75;;;;;;;16.65;70.22;99141.69;4092005;28;20218;-59
2022/06/12 02:34:08;;;;;;;3.00;2.80;;;;;;;16.67;70.11;99140.31;4075202;29;20294;-59
2022/06/12 02:36:14;;;;;;;3.28;2.80;;;;;;;16.66;70.26;99144.19;4092419;28;20285;-58
2022/06/12 02:38:46;;;;;;;3.60;3.15;;;;;;;16.66;70.18;99144.19;4093231;28;20203;-60
2022/06/12 02:40:55;;;;;;;3.50;3.15;;;;;;;16.65;70.08;99148.03;4093310;28;20215;-58
2022/06/12 02:42:58;;;;;;;2.80;2.60;;;;;;;16.64;69.78;99145.53;4089855;28;20680;-58
2022/06/12 02:45:27;;;;;;;3.10;2.90;;;;;;;16.64;70.01;99151.06;4074092;29;20212;-59
2022/06/12 02:47:32;;;;;;;3.55;2.78;;;;;;;16.61;70.25;99146.91;4088932;28;20223;-57
2022/06/12 02:49:34;;;;;;;3.45;3.15;;;;;;;16.63;70.09;99147.47;4093083;28;20202;-58
2022/06/12 02:52:01;;;;;;;3.97;3.55;;;;;;;16.62;70.20;99140.28;4094657;28;20290;-58
2022/06/12 02:54:29;;;;;;;2.47;2.28;;;;;;;16.60;70.27;99138.91;4090953;28;20574;-60
2022/06/12 02:56:36;;;;;;;3.72;3.17;;;;;;;16.58;70.02;99139.19;4093035;28;20578;-60
2022/06/12 02:58:51;;;;;;;2.47;2.28;;;;;;;16.57;69.95;99140.28;4095074;28;20338;-58
2022/06/12 03:00:57;;;;;;;3.08;2.80;;;;;;;16.54;70.37;99146.34;4076458;29;20696;-58
2022/06/12 03:03:24;;;;;;;2.85;2.65;;;;;;;16.54;70.41;99145.50;4071030;29;20238;-58
2022/06/12 03:05:30;;;;;;;2.40;2.20;;;;;;;16.53;70.49;99152.16;4090077;28;20203;-58
2022/06/12 03:07:32;;;;;;;2.25;2.05;;;;;;;16.50;70.14;99145.22;4097395;28;20233;-59
2022/06/12 03:09:33;;;;;;;2.90;2.70;;;;;;;16.49;70.22;99146.34;4096631;28;20210;-58
2022/06/12 03:11:38;;;;;;;2.67;2.33;;;;;;;16.46;70.44;99144.13;4090584;28;20573;-58
2022/06/12 03:13:40;;;;;;;2.90;2.70;;;;;;;16.45;70.31;99147.16;4075413;29;21766;-59
2022/06/12 03:15:56;;;;;;;3.15;2.83;;;;;;;16.43;70.36;99150.19;4096689;28;20228;-59
2022/06/12 03:17:59;;;;;;;2.90;2.70;;;;;;;16.42;70.52;99153.25;4091153;28;21530;-58
2022/06/12 03:20:01;;;;;;;5.20;2.88;;;;;;;16.38;70.81;99152.97;4074701;28;20627;-58
2022/06/12 03:22:10;;;;;;;3.47;3.03;;;;;;;16.34;70.94;99150.94;4092940;28;20215;-58
2022/06/12 03:24:34;;;;;;;2.88;2.55;;;;;;;16.28;71.21;99152.88;4089322;28;20257;-58
2022/06/12 03:27:02;;;;;;;3.03;2.63;;;;;;;16.26;71.41;99160.63;4077632;29;20246;-58
2022/06/12 03:29:24;;;;;;;3.42;3.13;;;;;;;16.21;71.62;99166.13;4092210;28;20228;-58
2022/06/12 03:31:35;;;;;;;3.80;2.78;;;;;;;16.18;71.67;99166.66;4091968;28;20565;-58
2022/06/12 03:33:55;;;;;;;3.20;2.90;;;;;;;16.16;71.92;99171.59;4096236;28;20229;-59
2022/06/12 03:35:59;;;;;;;4.22;2.97;;;;;;;16.10;72.28;99175.44;4101724;28;20232;-58
2022/06/12 03:38:12;;;;;;;2.78;2.58;;;;;;;16.08;72.26;99177.66;4098976;28;20218;-58
2022/06/12 03:40:58;;;;;;;2.40;2.22;;;;;;;16.11;72.28;99179.91;4098443;28;20238;-58
2022/06/12 03:43:12;;;;;;;3.35;2.80;;;;;;;16.10;72.35;99178.22;4078600;29;20232;-58
2022/06/12 03:45:22;;;;;;;3.75;3.00;;;;;;;16.12;72.21;99176.03;4089186;28;20313;-59
2022/06/12 03:47:30;;;;;;;5.00;2.53;;;;;;;16.12;72.18;99180.72;4089919;28;20202;-58
2022/06/12 03:49:36;;;;;;;3.38;3.08;;;;;;;15.88;73.73;99185.00;4094292;28;20401;-58
2022/06/12 03:52:05;;;;;;;2.97;2.65;;;;;;;15.92;73.19;99177.84;4077771;28;20771;-58
2022/06/12 03:54:15;;;;;;;3.10;2.90;;;;;;;16.03;72.80;99185.09;4094246;28;20705;-56
2022/06/12 03:58:52;;;;;;;2.78;2.55;;;;;;;16.18;72.64;99180.47;4078237;28;20384;-58
2022/06/12 04:00:54;;;;;;;3.15;2.90;;;;;;;16.29;72.83;99176.63;4091310;28;20234;-56
2022/06/12 04:03:07;;;;;;;2.92;2.60;;;;;;;16.22;73.23;99181.56;4094587;28;20351;-58
2022/06/12 04:05:11;;;;;;;4.50;3.08;;;;;;;16.15;73.63;99180.19;4095704;28;20239;-57
2022/06/12 04:07:14;;;;;;;3.15;2.60;;;;;;;16.20;72.96;99189.31;4078111;29;20295;-56
2022/06/12 04:09:19;;;;;;;3.17;2.97;;;;;;;16.27;72.84;99189.03;4094839;28;20215;-56
2022/06/12 04:11:22;;;;;;;3.00;2.58;;;;;;;16.31;72.51;99185.50;4076090;29;20272;-57
2022/06/12 04:13:24;;;;;;;3.47;2.47;;;;;;;16.36;72.31;99182.72;4094249;28;20306;-58
2022/06/12 04:15:32;;;;;;;2.70;2.50;;;;;;;16.41;72.22;99176.41;4076509;29;20309;-59
2022/06/12 04:17:34;;;;;;;4.07;3.15;;;;;;;16.42;72.18;99181.69;4078631;29;20570;-57
2022/06/12 04:22:07;;;;;;;3.17;2.78;;;;;;;16.42;72.02;99181.69;4092834;28;20212;-59
2022/06/12 04:24:34;;;;;;;3.28;2.75;;;;;;;16.47;71.92;99190.00;4112711;28;20350;-57
2022/06/12 04:26:42;;;;;;;4.50;2.90;;;;;;;16.49;71.88;99185.03;4087872;28;20210;-59
2022/06/12 04:28:45;;;;;;;6.50;2.72;;;;;;;16.55;71.81;99191.41;4093275;28;20207;-57
2022/06/12 04:30:46;;;;;;;4.30;4.00;;;;;;;16.55;71.84;99181.19;4092488;28;20211;-58
2022/06/12 04:32:49;;;;;;;2.75;2.55;;;;;;;16.60;71.66;99183.97;4091302;28;20251;-57
2022/06/12 04:34:53;;;;;;;3.72;2.45;;;;;;;16.63;71.47;99194.44;4093742;28;20555;-57
2022/06/12 04:37:00;;;;;;;2.50;2.30;;;;;;;16.68;71.35;99183.41;4089319;28;20590;-58
2022/06/12 04:39:03;;;;;;;5.10;2.70;;;;;;;16.73;71.45;99193.66;4087482;28;20234;-60
2022/06/12 04:41:05;;;;;;;2.50;2.30;;;;;;;16.75;71.47;99191.47;4088597;28;20339;-57
2022/06/12 04:43:06;;;;;;;3.75;3.13;;;;;;;16.77;71.58;99190.06;4088792;28;20233;-56
2022/06/12 04:45:08;;;;;;;4.28;2.63;;;;;;;16.77;71.85;99197.53;4089793;28;21112;-58
2022/06/12 04:47:16;;;;;;;5.03;2.30;;;;;;;16.79;71.81;99198.94;4086074;28;20663;-59
2022/06/12 04:49:24;;;;;;;3.30;2.88;;;;;;;16.68;72.98;99197.25;4087027;28;20329;-57
2022/06/12 04:51:26;;;;;;;3.13;2.90;;;;;;;16.52;73.78;99198.31;4087711;28;20206;-57
2022/06/12 04:53:28;;;;;;;3.03;2.72;;;;;;;16.55;73.61;99200.50;4085423;28;20245;-59
2022/06/12 04:55:32;;;;;;;2.72;2.35;;;;;;;16.41;74.43;99199.38;4085547;28;20219;-58
2022/06/12 04:57:33;;;;;;;2.58;2.33;;;;;;;16.27;74.87;99200.94;4096257;28;20298;-57
2022/06/12 04:59:35;;;;;;;2.60;2.40;;;;;;;16.39;74.36;99204.34;4090340;28;20222;-56
2022/06/12 05:01:37;;;;;;;4.43;3.30;;;;;;;16.42;74.49;99202.97;4088996;28;20199;-57
2022/06/12 05:03:39;;;;;;;3.92;2.85;;;;;;;16.38;74.72;99202.69;4092268;28;20230;-57
2022/06/12 05:05:42;;;;;;;4.10;2.75;;;;;;;16.42;74.70;99200.22;4092670;28;20296;-56
2022/06/12 05:07:43;;;;;;;5.05;3.22;;;;;;;16.49;74.57;99198.84;4095543;28;21001;-56
2022/06/12 05:09:45;;;;;;;2.40;2.17;;;;;;;16.62;73.90;99200.28;4092007;28;20212;-58
2022/06/12 05:11:46;;;;;;;2.80;2.35;;;;;;;16.75;73.25;99200.56;4090822;28;20299;-58
2022/06/12 05:13:48;;;;;;;3.17;2.30;;;;;;;16.86;73.29;99193.97;4091669;28;20231;-59
2022/06/12 05:15:50;;;;;;;2.83;2.30;;;;;;;16.95;73.05;99197.84;4089218;28;20233;-58
2022/06/12 05:17:52;;;;;;;2.72;2.50;;;;;;;16.94;73.41;99190.66;4090631;28;20204;-58
2022/06/12 05:19:53;;;;;;;2.50;2.30;;;;;;;17.01;73.02;99196.75;4093359;28;20270;-57
2022/06/12 05:21:55;;;;;;;2.75;2.03;;;;;;;16.99;73.05;99194.25;4089368;28;20215;-58
2022/06/12 05:23:58;;;;;;;5.65;3.47;;;;;;;17.09;72.76;99187.91;4107515;28;20368;-57
2022/06/12 05:26:01;;;;;;;8.32;2.42;;;;;;;17.03;72.79;99197.28;4093538;28;20210;-57
2022/06/12 05:28:03;;;;;;;3.65;2.95;;;;;;;16.99;73.58;99198.97;4087844;28;20245;-58
2022/06/12 05:30:06;;;;;;;2.83;2.38;;;;;;;17.13;72.73;99205.63;4091663;28;20215;-58
2022/06/12 05:32:12;;;;;;;2.50;2.30;;;;;;;17.22;72.63;99198.41;4099030;28;20290;-57
2022/06/12 05:34:15;;;;;;;2.53;2.33;;;;;;;17.28;72.44;99186.25;4094498;28;20207;-58
2022/06/12 05:36:17;;;;;;;3.03;2.35;;;;;;;17.33;72.56;99194.56;4097512;28;20265;-57
2022/06/12 05:38:19;;;;;;;2.45;2.10;;;;;;;17.33;72.74;99195.38;4092854;28;20215;-58
2022/06/12 05:40:26;;;;;;;2.65;2.35;;;;;;;17.35;72.69;99195.09;4070217;29;20291;-59
2022/06/12 05:42:28;;;;;;;3.50;2.67;;;;;;;17.35;72.64;99190.41;4089422;28;20231;-57
2022/06/12 05:44:29;;;;;;;2.47;2.38;;;;;;;17.28;72.95;99186.25;4092547;28;20215;-57
2022/06/12 05:46:31;;;;;;;2.85;2.55;;;;;;;17.35;72.75;99193.19;4087113;28;20524;-57
2022/06/12 05:48:32;;;;;;;3.60;2.08;;;;;;;17.21;73.21;99186.53;4092210;28;20249;-56
2022/06/12 05:50:37;;;;;;;2.88;1.77;;;;;;;17.34;72.71;99187.91;4094174;28;20203;-56
2022/06/12 05:52:38;;;;;;;3.88;2.22;;;;;;;17.40;72.98;99189.59;4092387;28;20254;-57
2022/06/12 05:54:40;;;;;;;8.25;2.60;;;;;;;17.48;72.74;99191.81;4093644;28;20755;-56
2022/06/12 05:56:41;;;;;;;7.05;2.50;;;;;;;17.60;73.79;99195.13;4091876;28;20700;-56
2022/06/12 05:58:43;;;;;;;5.15;1.90;;;;;;;17.74;73.70;99190.66;4058972;28;20319;-56
2022/06/12 06:00:45;;;;;;;4.78;1.85;;;;;;;17.76;73.03;99189.28;4058730;29;20209;-56
2022/06/12 06:02:47;;;;;;;2.75;2.20;;;;;;;17.87;73.21;99195.63;4074549;29;20227;-57
2022/06/12 06:04:48;;;;;;;2.60;1.77;;;;;;;18.20;73.16;99197.75;4079326;29;20235;-56
2022/06/12 06:06:54;;;;;;;3.25;2.15;;;;;;;18.37;72.16;99198.25;4078433;29;20204;-56
2022/06/12 06:08:57;;;;;;;4.22;2.35;;;;;;;18.55;71.96;99201.22;4077031;29;20201;-56
2022/06/12 06:10:59;;;;;;;3.78;2.75;;;;;;;18.80;72.29;99197.50;4072834;29;20584;-56
2022/06/12 06:13:01;;;;;;;17.30;2.88;;;;;;;18.82;71.69;99192.47;4078325;29;20236;-55
2022/06/12 06:15:02;;;;;;;3.08;2.25;;;;;;;18.92;70.34;99187.69;4075375;29;20349;-57
2022/06/12 06:17:04;;;;;;;3.72;2.38;;;;;;;19.15;70.42;99197.25;4078751;29;20235;-56
2022/06/12 06:19:06;;;;;;;3.28;2.75;;;;;;;19.40;69.80;99188.75;4073727;29;20445;-56
2022/06/12 06:21:09;;;;;;;5.45;2.45;;;;;;;19.67;69.09;99183.50;4078249;29;20806;-56
2022/06/12 06:23:20;;;;;;;5.18;2.65;;;;;;;19.78;68.00;99185.06;4078407;29;20242;-56
2022/06/12 06:25:24;;;;;;;2.33;1.73;;;;;;;19.99;67.85;99192.06;4076443;29;20211;-57
2022/06/12 06:27:25;;;;;;;3.38;2.08;;;;;;;20.00;67.24;99196.50;4076034;29;20236;-56
2022/06/12 06:29:27;;;;;;;3.35;2.10;;;;;;;20.26;67.12;99197.91;4074654;29;20220;-56
2022/06/12 06:31:28;;;;;;;3.95;2.17;;;;;;;20.47;66.32;99200.16;4074180;29;21075;-56
2022/06/12 06:33:31;;;;;;;7.95;2.92;;;;;;;20.37;65.95;99199.44;4079025;29;20242;-56
2022/06/12 06:35:32;;;;;;;3.45;1.70;;;;;;;20.32;66.55;99196.72;4078936;29;20207;-56
2022/06/12 06:37:34;;;;;;;2.88;1.50;;;;;;;20.40;66.41;99201.63;4075178;29;20224;-56
2022/06/12 06:39:37;;;;;;;2.83;1.60;;;;;;;20.44;66.66;99197.13;4074761;29;20572;-57
2022/06/12 06:41:39;;;;;;;2.05;1.58;;;;;;;20.28;67.00;99201.22;4075500;29;20709;-56
2022/06/12 06:46:13;;;;;;;9.65;1.60;;;;;;;20.68;66.41;99200.69;4077828;29;21067;-56
2022/06/12 06:48:14;;;;;;;6.18;1.48;;;;;;;20.95;66.35;99203.69;4077968;29;20203;-56
2022/06/12 06:50:19;;;;;;;3.88;1.98;;;;;;;21.14;65.75;99197.00;4076286;28;20707;-56
2022/06/12 06:52:21;;;;;;;2.15;1.95;;;;;;;21.33;64.61;99202.53;4089856;28;20711;-58
2022/06/12 06:54:22;;;;;;;3.03;1.55;;;;;;;21.54;64.33;99196.34;4095316;28;20217;-57
2022/06/12 06:56:24;;;;;;;2.47;1.52;;;;;;;21.76;63.96;99201.25;4093333;28;20619;-59
2022/06/12 06:58:27;;;;;;;2.53;1.80;;;;;;;21.90;63.78;99202.16;4091929;28;20202;-56
2022/06/12 07:00:32;;;;;;;3.58;1.45;;;;;;;21.89;63.55;99192.13;4092442;28;20237;-58
2022/06/12 07:02:34;;;;;;;2.15;1.20;;;;;;;22.04;63.21;99195.44;4085825;28;20230;-57
2022/06/12 07:04:36;;;;;;;4.13;1.63;;;;;;;22.27;62.70;99190.81;4089020;28;20225;-57
2022/06/12 07:06:38;;;;;;;6.00;1.75;;;;;;;22.42;62.07;99198.88;4072764;29;20211;-56
2022/06/12 07:08:40;;;;;;;4.22;1.98;;;;;;;22.50;61.41;99189.84;4090152;28;20218;-57
2022/06/12 07:10:43;;;;;;;8.15;1.33;;;;;;;22.65;60.53;99192.28;4091172;28;20215;-57
2022/06/12 07:12:45;;;;;;;4.82;1.58;;;;;;;22.56;61.08;99194.16;4092700;28;20593;-57
2022/06/12 07:14:47;;;;;;;3.00;1.02;;;;;;;22.59;60.62;99193.53;4094684;28;20205;-57
2022/06/12 07:16:48;;;;;;;2.10;1.10;;;;;;;22.63;60.67;99189.81;4091943;28;20218;-57
2022/06/12 07:18:50;;;;;;;2.95;1.20;;;;;;;22.87;59.77;99183.97;4091692;28;20734;-56
2022/06/12 07:20:54;;;;;;;8.38;1.45;;;;;;;22.87;57.88;99186.75;4094696;28;20339;-57
2022/06/12 07:22:56;;;;;;;10.15;1.50;;;;;;;23.14;58.01;99184.75;4095252;28;20313;-57
2022/06/12 07:24:58;;;;;;;2.70;1.33;;;;;;;23.21;57.15;99189.91;4097065;28;20206;-57
2022/06/12 07:26:59;;;;;;;3.78;1.23;;;;;;;23.17;57.09;99183.31;4095916;28;20245;-56
2022/06/12 07:29:01;;;;;;;4.00;1.50;;;;;;;23.29;58.00;99176.00;4096011;28;20222;-57
2022/06/12 07:31:05;;;;;;;3.15;1.15;;;;;;;23.49;57.37;99183.06;4096182;28;20252;-57
2022/06/12 07:33:07;;;;;;;3.13;1.48;;;;;;;23.48;57.74;99182.25;4091990;28;20757;-57
2022/06/12 07:35:10;;;;;;;2.88;1.50;;;;;;;23.60;56.74;99176.06;4091533;28;20302;-57
2022/06/12 07:37:11;;;;;;;4.97;1.65;;;;;;;23.48;57.55;99178.63;4091204;28;20253;-57
2022/06/12 07:39:17;;;;;;;2.38;1.05;;;;;;;23.65;57.54;99173.16;4092543;28;20230;-57
2022/06/12 07:41:19;;;;;;;7.55;1.63;;;;;;;23.69;57.48;99188.16;4094244;28;20273;-57
2022/06/12 07:43:22;;;;;;;7.82;1.33;;;;;;;23.81;56.63;99184.44;4091004;28;20236;-56
2022/06/12 07:45:24;;;;;;;2.63;1.48;;;;;;;23.75;56.20;99176.50;4090938;28;20211;-56
2022/06/12 07:47:27;;;;;;;5.80;2.00;;;;;;;23.92;55.94;99174.66;4092780;28;20311;-57
2022/06/12 07:49:30;;;;;;;2.03;1.00;;;;;;;23.80;56.48;99177.19;4093449;28;20213;-57
2022/06/12 07:51:32;;;;;;;2.92;1.00;;;;;;;23.98;57.02;99180.13;4076299;28;20326;-57
2022/06/12 07:53:34;;;;;;;3.05;1.58;;;;;;;24.16;56.68;99175.13;4090875;28;20675;-57
2022/06/12 07:55:36;;;;;;;1.10;0.95;;;;;;;24.38;55.65;99177.84;4093760;28;20830;-56
2022/06/12 07:57:38;;;;;;;2.63;1.25;;;;;;;24.50;54.46;99175.25;4091540;28;20241;-57
2022/06/12 07:59:40;;;;;;;2.85;1.30;;;;;;;24.26;55.44;99174.81;4094233;28;20258;-57
2022/06/12 08:01:42;;;;;;;3.08;1.30;;;;;;;24.19;55.15;99173.66;4093567;28;20210;-57
2022/06/12 08:03:44;;;;;;;2.55;1.38;;;;;;;23.98;53.96;99167.78;4097049;28;20229;-58
2022/06/12 08:05:46;;;;;;;3.25;1.10;;;;;;;24.32;54.84;99176.34;4094299;28;20237;-58
2022/06/12 08:07:48;;;;;;;6.15;0.93;;;;;;;24.41;53.61;99170.78;4093509;28;20206;-57
2022/06/12 08:09:49;;;;;;;26.55;1.75;;;;;;;24.40;53.83;99167.13;4096539;28;20241;-59
2022/06/12 08:11:51;;;;;;;5.05;1.02;;;;;;;24.35;53.00;99164.50;4096188;28;20286;-58
2022/06/12 08:13:53;;;;;;;2.78;1.08;;;;;;;24.04;53.57;99160.06;4096374;28;20237;-57
2022/06/12 08:15:56;;;;;;;3.45;1.10;;;;;;;24.20;53.91;99166.91;4095206;28;20294;-57
2022/06/12 08:17:57;;;;;;;8.75;1.55;;;;;;;24.55;54.33;99180.72;4093933;28;20611;-57
2022/06/12 08:22:19;;;;;;;2.20;1.20;;;;;;;24.94;52.94;99169.44;4094342;28;20242;-58
2022/06/12 08:24:21;;;;;;;2.28;1.63;;;;;;;24.44;52.73;99168.16;4080204;29;20216;-61
2022/06/12 08:26:26;;;;;;;4.10;1.88;;;;;;;24.51;54.00;99176.91;4093825;28;20203;-59
2022/06/12 08:28:30;;;;;;;2.92;1.40;;;;;;;25.08;54.05;99170.13;4092261;28;20217;-58
2022/06/12 08:30:32;;;;;;;1.90;1.10;;;;;;;24.88;51.71;99165.16;4094977;28;20214;-59
2022/06/12 08:32:35;;;;;;;2.35;1.42;;;;;;;24.84;52.07;99175.38;4093042;28;20290;-58
2022/06/12 08:34:41;;;;;;;4.47;1.58;;;;;;;25.09;52.01;99168.97;4091538;28;20222;-59
2022/06/12 08:36:42;;;;;;;5.10;1.23;;;;;;;25.39;52.35;99172.81;4093167;28;20213;-60
2022/06/12 08:38:46;;;;;;;3.10;1.10;;;;;;;25.68;52.93;99159.75;4088860;28;20690;-60
2022/06/12 08:40:53;;;;;;;2.92;1.23;;;;;;;25.87;52.31;99160.16;4094514;28;20207;-57
2022/06/12 08:43:02;;;;;;;2.63;1.02;;;;;;;26.00;51.76;99161.19;4077238;28;20223;-57
2022/06/12 08:45:16;;;;;;;3.05;1.15;;;;;;;26.30;52.14;99163.69;4074166;29;20207;-59
2022/06/12 08:47:37;;;;;;;3.35;1.20;;;;;;;26.50;51.48;99154.50;4092220;28;20229;-58
2022/06/12 08:49:41;;;;;;;2.15;1.20;;;;;;;25.91;49.59;99155.59;4078983;29;20286;-58
2022/06/12 08:51:53;;;;;;;4.15;1.33;;;;;;;25.94;50.15;99152.09;4097642;28;20210;-57
2022/06/12 08:54:00;;;;;;;1.90;0.90;;;;;;;26.13;50.68;99146.91;4106853;28;20678;-58
2022/06/12 08:56:07;;;;;;;2.35;1.30;;;;;;;26.34;50.28;99147.84;4077910;29;20227;-58
2022/06/12 08:58:18;;;;;;;2.72;1.10;;;;;;;26.18;48.97;99137.50;4082458;29;20227;-58
2022/06/12 09:00:27;;;;;;;1.83;1.15;;;;;;;26.28;49.88;99143.56;4097886;28;20227;-58
2022/06/12 09:02:36;;;;;;;2.72;1.85;;;;;;;26.21;50.97;99148.88;4078330;28;20691;-57
2022/06/12 09:04:38;;;;;;;2.97;1.00;;;;;;;26.46;49.22;99138.69;4087673;28;20243;-58
2022/06/12 09:06:49;;;;;;;2.58;1.02;;;;;;;26.55;50.68;99140.31;4057278;28;20241;-61
2022/06/12 09:09:17;;;;;;;6.03;1.08;;;;;;;26.70;49.53;99134.09;4094939;28;20311;-59
2022/06/12 09:11:24;;;;;;;1.83;1.15;;;;;;;26.15;49.50;99127.78;4093933;28;20269;-58
2022/06/12 09:14:03;;;;;;;3.47;1.30;;;;;;;26.43;50.84;99128.94;4098510;28;20305;-58
2022/06/12 09:16:42;;;;;;;2.58;1.55;;;;;;;27.02;50.13;99124.97;4098676;28;20205;-58
2022/06/12 09:18:59;;;;;;;2.33;0.93;;;;;;;27.18;48.90;99120.38;4096906;28;20202;-58
2022/06/12 09:21:07;;;;;;;3.58;1.00;;;;;;;27.18;48.08;99117.56;4095950;28;20195;-58
2022/06/12 09:23:40;;;;;;;2.75;1.33;;;;;;;27.30;48.31;99126.06;4099723;28;20236;-58
2022/06/12 09:25:56;;;;;;;2.15;0.75;;;;;;;27.41;49.09;99121.66;4096692;28;20203;-59
2022/06/12 09:28:04;;;;;;;1.70;0.88;;;;;;;27.49;48.21;99123.56;4090265;28;20688;-60
2022/06/12 09:30:11;;;;;;;2.53;1.52;;;;;;;27.84;48.62;99124.03;4095511;28;20289;-60
2022/06/12 09:32:31;;;;;;;3.15;1.02;;;;;;;27.90;47.55;99117.84;4096969;28;20297;-59
2022/06/12 09:34:48;;;;;;;3.83;1.17;;;;;;;28.00;49.39;99116.59;4098261;28;20632;-58
2022/06/12 09:36:59;;;;;;;4.03;1.10;;;;;;;28.19;47.41;99120.47;4091798;28;20218;-58
2022/06/12 09:39:06;;;;;;;2.03;1.33;;;;;;;27.54;46.42;99114.94;4093527;28;20206;-58
2022/06/12 09:41:24;;;;;;;1.40;0.95;;;;;;;27.48;48.88;99110.69;4096945;28;20206;-58
2022/06/12 09:43:26;;;;;;;9.40;1.42;;;;;;;27.84;48.47;99119.25;4096439;28;20233;-58
2022/06/12 09:46:14;;;;;;;1.83;1.20;;;;;;;28.17;48.23;99111.56;4099502;28;20632;-59
2022/06/12 09:48:40;;;;;;;4.22;1.10;;;;;;;28.29;48.83;99114.41;4037225;29;20303;-58
2022/06/12 09:50:52;;;;;;;1.10;1.00;;;;;;;27.81;46.44;99114.34;4098618;28;20615;-58
2022/06/12 09:53:06;;;;;;;2.15;1.25;;;;;;;27.26;46.61;99108.22;4095334;28;20232;-58
2022/06/12 09:55:40;;;;;;;3.50;1.30;;;;;;;27.35;48.06;99103.38;4095020;28;20222;-58
2022/06/12 09:58:01;;;;;;;2.15;1.40;;;;;;;26.58;48.18;99105.94;4063131;29;20705;-58
2022/06/12 10:00:16;;;;;;;4.50;1.30;;;;;;;27.19;47.88;99096.72;4098664;28;20298;-59
2022/06/12 10:02:33;;;;;;;2.90;1.20;;;;;;;27.28;48.70;99097.47;4097279;28;20215;-58
2022/06/12 10:04:49;;;;;;;5.72;1.13;;;;;;;27.04;48.35;99094.50;4100318;28;20205;-58
2022/06/12 10:06:59;;;;;;;2.20;1.02;;;;;;;27.04;48.24;99094.50;4110620;28;20603;-58
2022/06/12 10:09:09;;;;;;;3.33;1.25;;;;;;;27.62;48.06;99083.06;4095439;28;20234;-58
2022/06/12 10:11:16;;;;;;;2.72;1.38;;;;;;;27.95;47.08;99091.47;4094688;28;20687;-58
2022/06/12 10:13:23;;;;;;;3.63;1.17;;;;;;;27.73;47.74;99089.06;4091313;28;20233;-58
2022/06/12 10:15:34;;;;;;;1.92;1.33;;;;;;;27.03;48.11;99092.03;4082081;29;20718;-58
2022/06/12 10:17:56;;;;;;;1.90;0.75;;;;;;;27.08;48.36;99089.84;4094088;28;20322;-59